sensor_id;sensor_type;location;lat;lon;timestamp;P1;durP1;ratioP1;P2;durP2;ratioP2
58878;SDS011;44660;42.664;23.266;2022-07-22T00:02:03;7.57;;;3.70;;
58878;SDS011;44660;42.664;23.266;2022-07-22T00:04:29;5.90;;;3.58;;
58878;SDS011;44660;42.664;23.266;2022-07-22T00:06:54;8.05;;;4.07;;
58878;SDS011;44660;42.664;23.266;2022-07-22T00:09:20;4.68;;;3.83;;
58878;SDS011;44660;42.664;23.266;2022-07-22T00:11:45;6.75;;;4.05;;
58878;SDS011;44660;42.664;23.266;2022-07-22T00:14:11;5.40;;;3.90;;
58878;SDS011;44660;42.664;23.266;2022-07-22T00:16:37;7.95;;;4.10;;
58878;SDS011;44660;42.664;23.266;2022-07-22T00:19:03;6.75;;;4.15;;
58878;SDS011;44660;42.664;23.266;2022-07-22T00:21:29;9.40;;;4.20;;
58878;SDS011;44660;42.664;23.266;2022-07-22T00:23:54;8.52;;;3.75;;
58878;SDS011;44660;42.664;23.266;2022-07-22T00:26:20;5.38;;;3.80;;
58878;SDS011;44660;42.664;23.266;2022-07-22T00:28:45;7.45;;;3.97;;
58878;SDS011;44660;42.664;23.266;2022-07-22T00:31:10;6.97;;;3.88;;
58878;SDS011;44660;42.664;23.266;2022-07-22T00:33:36;5.95;;;3.95;;
58878;SDS011;44660;42.664;23.266;2022-07-22T00:36:01;5.65;;;3.67;;
58878;SDS011;44660;42.664;23.266;2022-07-22T00:38:27;10.98;;;4.05;;
58878;SDS011;44660;42.664;23.266;2022-07-22T00:40:52;7.25;;;3.90;;
58878;SDS011;44660;42.664;23.266;2022-07-22T00:43:18;10.43;;;4.30;;
58878;SDS011;44660;42.664;23.266;2022-07-22T00:45:43;6.07;;;4.35;;
58878;SDS011;44660;42.664;23.266;2022-07-22T00:48:09;7.13;;;4.60;;
58878;SDS011;44660;42.664;23.266;2022-07-22T00:50:34;6.07;;;4.20;;
58878;SDS011;44660;42.664;23.266;2022-07-22T00:53:00;11.00;;;4.40;;
58878;SDS011;44660;42.664;23.266;2022-07-22T00:55:25;9.27;;;4.38;;
58878;SDS011;44660;42.664;23.266;2022-07-22T00:57:51;6.50;;;4.10;;
58878;SDS011;44660;42.664;23.266;2022-07-22T01:00:18;11.82;;;4.75;;
58878;SDS011;44660;42.664;23.266;2022-07-22T01:02:45;8.43;;;5.00;;
58878;SDS011;44660;42.664;23.266;2022-07-22T01:05:11;7.30;;;4.55;;
58878;SDS011;44660;42.664;23.266;2022-07-22T01:07:37;9.75;;;4.68;;
58878;SDS011;44660;42.664;23.266;2022-07-22T01:10:04;9.02;;;5.10;;
58878;SDS011;44660;42.664;23.266;2022-07-22T01:12:31;8.82;;;4.68;;
58878;SDS011;44660;42.664;23.266;2022-07-22T01:14:57;12.32;;;5.10;;
58878;SDS011;44660;42.664;23.266;2022-07-22T01:17:22;8.68;;;4.30;;
58878;SDS011;44660;42.664;23.266;2022-07-22T01:19:48;8.93;;;4.63;;
58878;SDS011;44660;42.664;23.266;2022-07-22T01:22:15;11.88;;;4.68;;
58878;SDS011;44660;42.664;23.266;2022-07-22T01:24:40;9.18;;;5.18;;
58878;SDS011;44660;42.664;23.266;2022-07-22T01:27:05;11.38;;;4.88;;
58878;SDS011;44660;42.664;23.266;2022-07-22T01:29:31;8.95;;;4.68;;
58878;SDS011;44660;42.664;23.266;2022-07-22T01:31:57;11.68;;;4.93;;
58878;SDS011;44660;42.664;23.266;2022-07-22T01:34:23;9.02;;;5.00;;
58878;SDS011;44660;42.664;23.266;2022-07-22T01:36:48;10.43;;;5.50;;
58878;SDS011;44660;42.664;23.266;2022-07-22T01:39:14;9.60;;;5.07;;
58878;SDS011;44660;42.664;23.266;2022-07-22T01:41:40;9.98;;;4.97;;
58878;SDS011;44660;42.664;23.266;2022-07-22T01:44:05;11.15;;;5.20;;
58878;SDS011;44660;42.664;23.266;2022-07-22T01:46:31;10.90;;;5.25;;
58878;SDS011;44660;42.664;23.266;2022-07-22T01:48:56;10.23;;;5.53;;
58878;SDS011;44660;42.664;23.266;2022-07-22T01:51:22;8.32;;;4.95;;
58878;SDS011;44660;42.664;23.266;2022-07-22T01:53:47;9.35;;;5.30;;
58878;SDS011;44660;42.664;23.266;2022-07-22T01:56:13;7.57;;;5.07;;
58878;SDS011;44660;42.664;23.266;2022-07-22T01:58:39;8.73;;;4.85;;
58878;SDS011;44660;42.664;23.266;2022-07-22T02:01:05;10.50;;;5.28;;
58878;SDS011;44660;42.664;23.266;2022-07-22T02:03:30;16.38;;;5.15;;
58878;SDS011;44660;42.664;23.266;2022-07-22T02:05:56;9.98;;;5.70;;
58878;SDS011;44660;42.664;23.266;2022-07-22T02:08:21;14.45;;;5.50;;
58878;SDS011;44660;42.664;23.266;2022-07-22T02:10:46;11.07;;;5.40;;
58878;SDS011;44660;42.664;23.266;2022-07-22T02:13:12;10.45;;;5.45;;
58878;SDS011;44660;42.664;23.266;2022-07-22T02:15:38;10.90;;;5.80;;
58878;SDS011;44660;42.664;23.266;2022-07-22T02:18:10;12.93;;;5.63;;
58878;SDS011;44660;42.664;23.266;2022-07-22T02:20:37;8.75;;;5.07;;
58878;SDS011;44660;42.664;23.266;2022-07-22T02:23:03;7.28;;;5.15;;
58878;SDS011;44660;42.664;23.266;2022-07-22T02:25:29;12.10;;;5.55;;
58878;SDS011;44660;42.664;23.266;2022-07-22T02:27:54;12.73;;;5.00;;
58878;SDS011;44660;42.664;23.266;2022-07-22T02:30:20;8.30;;;4.55;;
58878;SDS011;44660;42.664;23.266;2022-07-22T02:32:45;7.32;;;5.60;;
58878;SDS011;44660;42.664;23.266;2022-07-22T02:35:10;10.75;;;5.40;;
58878;SDS011;44660;42.664;23.266;2022-07-22T02:37:36;9.63;;;5.07;;
58878;SDS011;44660;42.664;23.266;2022-07-22T02:40:02;13.52;;;5.88;;
58878;SDS011;44660;42.664;23.266;2022-07-22T02:42:29;9.60;;;5.80;;
58878;SDS011;44660;42.664;23.266;2022-07-22T02:44:54;13.68;;;5.20;;
58878;SDS011;44660;42.664;23.266;2022-07-22T02:47:20;13.07;;;5.82;;
58878;SDS011;44660;42.664;23.266;2022-07-22T02:49:45;13.30;;;5.40;;
58878;SDS011;44660;42.664;23.266;2022-07-22T02:52:11;14.07;;;5.43;;
58878;SDS011;44660;42.664;23.266;2022-07-22T02:54:36;12.07;;;5.20;;
58878;SDS011;44660;42.664;23.266;2022-07-22T02:57:02;13.85;;;5.00;;
58878;SDS011;44660;42.664;23.266;2022-07-22T02:59:27;9.48;;;4.80;;
58878;SDS011;44660;42.664;23.266;2022-07-22T03:01:52;12.27;;;5.68;;
58878;SDS011;44660;42.664;23.266;2022-07-22T03:04:18;10.70;;;5.70;;
58878;SDS011;44660;42.664;23.266;2022-07-22T03:06:43;12.57;;;5.55;;
58878;SDS011;44660;42.664;23.266;2022-07-22T03:09:09;12.52;;;5.80;;
58878;SDS011;44660;42.664;23.266;2022-07-22T03:11:34;16.30;;;5.75;;
58878;SDS011;44660;42.664;23.266;2022-07-22T03:14:00;10.93;;;5.18;;
58878;SDS011;44660;42.664;23.266;2022-07-22T03:16:25;8.23;;;5.47;;
58878;SDS011;44660;42.664;23.266;2022-07-22T03:18:50;7.65;;;4.80;;
58878;SDS011;44660;42.664;23.266;2022-07-22T03:21:16;10.80;;;5.13;;
58878;SDS011;44660;42.664;23.266;2022-07-22T03:23:41;8.35;;;4.70;;
58878;SDS011;44660;42.664;23.266;2022-07-22T03:26:07;9.02;;;4.80;;
58878;SDS011;44660;42.664;23.266;2022-07-22T03:28:32;7.60;;;4.60;;
58878;SDS011;44660;42.664;23.266;2022-07-22T03:30:57;9.07;;;4.63;;
58878;SDS011;44660;42.664;23.266;2022-07-22T03:33:23;9.82;;;4.47;;
58878;SDS011;44660;42.664;23.266;2022-07-22T03:35:48;9.48;;;4.68;;
58878;SDS011;44660;42.664;23.266;2022-07-22T03:38:14;13.88;;;5.10;;
58878;SDS011;44660;42.664;23.266;2022-07-22T03:40:39;8.65;;;4.95;;
58878;SDS011;44660;42.664;23.266;2022-07-22T03:43:05;12.93;;;5.13;;
58878;SDS011;44660;42.664;23.266;2022-07-22T03:45:30;16.70;;;6.20;;
58878;SDS011;44660;42.664;23.266;2022-07-22T03:47:56;13.55;;;5.20;;
58878;SDS011;44660;42.664;23.266;2022-07-22T03:50:23;10.65;;;4.90;;
58878;SDS011;44660;42.664;23.266;2022-07-22T03:52:49;16.38;;;8.00;;
58878;SDS011;44660;42.664;23.266;2022-07-22T03:55:14;21.13;;;14.43;;
58878;SDS011;44660;42.664;23.266;2022-07-22T03:57:40;20.40;;;11.05;;
58878;SDS011;44660;42.664;23.266;2022-07-22T04:00:05;15.13;;;9.05;;
58878;SDS011;44660;42.664;23.266;2022-07-22T04:02:31;17.10;;;10.40;;
58878;SDS011;44660;42.664;23.266;2022-07-22T04:04:57;19.73;;;11.73;;
58878;SDS011;44660;42.664;23.266;2022-07-22T04:07:22;18.15;;;13.02;;
58878;SDS011;44660;42.664;23.266;2022-07-22T04:09:47;24.08;;;11.73;;
58878;SDS011;44660;42.664;23.266;2022-07-22T04:12:13;21.63;;;10.45;;
58878;SDS011;44660;42.664;23.266;2022-07-22T04:14:38;36.22;;;20.60;;
58878;SDS011;44660;42.664;23.266;2022-07-22T04:17:04;18.02;;;11.40;;
58878;SDS011;44660;42.664;23.266;2022-07-22T04:19:29;24.30;;;15.80;;
58878;SDS011;44660;42.664;23.266;2022-07-22T04:21:55;16.70;;;8.10;;
58878;SDS011;44660;42.664;23.266;2022-07-22T04:24:20;15.82;;;7.30;;
58878;SDS011;44660;42.664;23.266;2022-07-22T04:26:46;18.88;;;7.03;;
58878;SDS011;44660;42.664;23.266;2022-07-22T04:29:11;15.68;;;7.25;;
58878;SDS011;44660;42.664;23.266;2022-07-22T04:31:37;16.42;;;6.97;;
58878;SDS011;44660;42.664;23.266;2022-07-22T04:34:02;14.48;;;7.03;;
58878;SDS011;44660;42.664;23.266;2022-07-22T04:36:27;17.75;;;7.00;;
58878;SDS011;44660;42.664;23.266;2022-07-22T04:38:53;10.40;;;6.43;;
58878;SDS011;44660;42.664;23.266;2022-07-22T04:41:18;14.55;;;6.80;;
58878;SDS011;44660;42.664;23.266;2022-07-22T04:43:44;13.10;;;5.95;;
58878;SDS011;44660;42.664;23.266;2022-07-22T04:46:09;13.05;;;6.10;;
58878;SDS011;44660;42.664;23.266;2022-07-22T04:48:35;27.63;;;17.30;;
58878;SDS011;44660;42.664;23.266;2022-07-22T04:51:01;35.40;;;19.55;;
58878;SDS011;44660;42.664;23.266;2022-07-22T04:53:28;20.88;;;11.50;;
58878;SDS011;44660;42.664;23.266;2022-07-22T04:55:53;13.45;;;6.68;;
58878;SDS011;44660;42.664;23.266;2022-07-22T04:58:19;17.08;;;6.60;;
58878;SDS011;44660;42.664;23.266;2022-07-22T05:00:45;17.13;;;6.75;;
58878;SDS011;44660;42.664;23.266;2022-07-22T05:03:11;11.70;;;6.50;;
58878;SDS011;44660;42.664;23.266;2022-07-22T05:05:37;13.85;;;6.32;;
58878;SDS011;44660;42.664;23.266;2022-07-22T05:08:03;13.10;;;6.40;;
58878;SDS011;44660;42.664;23.266;2022-07-22T05:10:28;12.98;;;6.65;;
58878;SDS011;44660;42.664;23.266;2022-07-22T05:12:54;14.20;;;5.90;;
58878;SDS011;44660;42.664;23.266;2022-07-22T05:15:19;16.17;;;6.65;;
58878;SDS011;44660;42.664;23.266;2022-07-22T05:17:44;12.27;;;6.35;;
58878;SDS011;44660;42.664;23.266;2022-07-22T05:20:10;12.52;;;6.40;;
58878;SDS011;44660;42.664;23.266;2022-07-22T05:22:36;13.98;;;6.35;;
58878;SDS011;44660;42.664;23.266;2022-07-22T05:25:02;11.27;;;6.07;;
58878;SDS011;44660;42.664;23.266;2022-07-22T05:27:27;18.52;;;6.32;;
58878;SDS011;44660;42.664;23.266;2022-07-22T05:29:53;19.45;;;6.57;;
58878;SDS011;44660;42.664;23.266;2022-07-22T05:32:18;16.38;;;8.15;;
58878;SDS011;44660;42.664;23.266;2022-07-22T05:34:44;23.10;;;10.80;;
58878;SDS011;44660;42.664;23.266;2022-07-22T05:37:09;14.93;;;6.85;;
58878;SDS011;44660;42.664;23.266;2022-07-22T05:39:35;15.18;;;6.53;;
58878;SDS011;44660;42.664;23.266;2022-07-22T05:42:00;18.52;;;6.05;;
58878;SDS011;44660;42.664;23.266;2022-07-22T05:44:26;14.10;;;5.80;;
58878;SDS011;44660;42.664;23.266;2022-07-22T05:46:51;15.60;;;6.40;;
58878;SDS011;44660;42.664;23.266;2022-07-22T05:49:17;15.80;;;5.88;;
58878;SDS011;44660;42.664;23.266;2022-07-22T05:51:42;16.58;;;6.78;;
58878;SDS011;44660;42.664;23.266;2022-07-22T05:54:08;14.70;;;6.13;;
58878;SDS011;44660;42.664;23.266;2022-07-22T05:56:33;17.90;;;10.18;;
58878;SDS011;44660;42.664;23.266;2022-07-22T05:58:59;16.85;;;8.40;;
58878;SDS011;44660;42.664;23.266;2022-07-22T06:01:24;15.73;;;6.80;;
58878;SDS011;44660;42.664;23.266;2022-07-22T06:03:50;13.35;;;5.97;;
58878;SDS011;44660;42.664;23.266;2022-07-22T06:06:16;12.05;;;6.53;;
58878;SDS011;44660;42.664;23.266;2022-07-22T06:08:41;17.48;;;7.18;;
58878;SDS011;44660;42.664;23.266;2022-07-22T06:11:07;20.85;;;6.90;;
58878;SDS011;44660;42.664;23.266;2022-07-22T06:13:32;18.88;;;6.28;;
58878;SDS011;44660;42.664;23.266;2022-07-22T06:15:58;26.80;;;6.68;;
58878;SDS011;44660;42.664;23.266;2022-07-22T06:18:25;24.50;;;6.38;;
58878;SDS011;44660;42.664;23.266;2022-07-22T06:20:50;23.88;;;6.75;;
58878;SDS011;44660;42.664;23.266;2022-07-22T06:23:16;17.10;;;6.13;;
58878;SDS011;44660;42.664;23.266;2022-07-22T06:25:42;18.85;;;5.72;;
58878;SDS011;44660;42.664;23.266;2022-07-22T06:28:07;15.63;;;6.43;;
58878;SDS011;44660;42.664;23.266;2022-07-22T06:30:33;11.40;;;5.38;;
58878;SDS011;44660;42.664;23.266;2022-07-22T06:32:59;20.75;;;5.88;;
58878;SDS011;44660;42.664;23.266;2022-07-22T06:35:24;13.43;;;5.53;;
58878;SDS011;44660;42.664;23.266;2022-07-22T06:37:49;17.38;;;5.40;;
58878;SDS011;44660;42.664;23.266;2022-07-22T06:40:15;14.35;;;5.45;;
58878;SDS011;44660;42.664;23.266;2022-07-22T06:42:40;18.65;;;5.55;;
58878;SDS011;44660;42.664;23.266;2022-07-22T06:45:06;13.35;;;5.38;;
58878;SDS011;44660;42.664;23.266;2022-07-22T06:47:32;16.65;;;6.07;;
58878;SDS011;44660;42.664;23.266;2022-07-22T06:50:00;16.45;;;4.95;;
58878;SDS011;44660;42.664;23.266;2022-07-22T06:52:28;12.93;;;4.80;;
58878;SDS011;44660;42.664;23.266;2022-07-22T06:54:53;25.75;;;17.73;;
58878;SDS011;44660;42.664;23.266;2022-07-22T06:57:18;13.90;;;5.68;;
58878;SDS011;44660;42.664;23.266;2022-07-22T06:59:44;9.20;;;4.80;;
58878;SDS011;44660;42.664;23.266;2022-07-22T07:02:09;7.32;;;4.22;;
58878;SDS011;44660;42.664;23.266;2022-07-22T07:04:35;8.80;;;4.13;;
58878;SDS011;44660;42.664;23.266;2022-07-22T07:07:00;8.63;;;4.72;;
58878;SDS011;44660;42.664;23.266;2022-07-22T07:09:26;8.65;;;3.97;;
58878;SDS011;44660;42.664;23.266;2022-07-22T07:11:51;12.35;;;4.40;;
58878;SDS011;44660;42.664;23.266;2022-07-22T07:14:17;9.70;;;4.68;;
58878;SDS011;44660;42.664;23.266;2022-07-22T07:16:42;14.27;;;4.13;;
58878;SDS011;44660;42.664;23.266;2022-07-22T07:19:07;11.07;;;4.28;;
58878;SDS011;44660;42.664;23.266;2022-07-22T07:21:33;19.95;;;4.82;;
58878;SDS011;44660;42.664;23.266;2022-07-22T07:23:58;10.23;;;4.07;;
58878;SDS011;44660;42.664;23.266;2022-07-22T07:26:24;8.43;;;3.90;;
58878;SDS011;44660;42.664;23.266;2022-07-22T07:28:49;8.90;;;3.88;;
58878;SDS011;44660;42.664;23.266;2022-07-22T07:31:15;6.88;;;4.30;;
58878;SDS011;44660;42.664;23.266;2022-07-22T07:33:40;7.25;;;3.97;;
58878;SDS011;44660;42.664;23.266;2022-07-22T07:36:06;9.05;;;4.00;;
58878;SDS011;44660;42.664;23.266;2022-07-22T07:38:31;9.55;;;4.22;;
58878;SDS011;44660;42.664;23.266;2022-07-22T07:40:59;10.82;;;4.00;;
58878;SDS011;44660;42.664;23.266;2022-07-22T07:43:24;13.52;;;4.78;;
58878;SDS011;44660;42.664;23.266;2022-07-22T07:45:50;9.73;;;4.03;;
58878;SDS011;44660;42.664;23.266;2022-07-22T07:48:15;8.43;;;4.28;;
58878;SDS011;44660;42.664;23.266;2022-07-22T07:50:41;16.00;;;4.38;;
58878;SDS011;44660;42.664;23.266;2022-07-22T07:53:06;10.07;;;3.78;;
58878;SDS011;44660;42.664;23.266;2022-07-22T07:55:32;8.95;;;4.10;;
58878;SDS011;44660;42.664;23.266;2022-07-22T07:58:01;11.75;;;3.72;;
58878;SDS011;44660;42.664;23.266;2022-07-22T08:00:26;7.70;;;3.70;;
58878;SDS011;44660;42.664;23.266;2022-07-22T08:02:53;10.23;;;3.50;;
58878;SDS011;44660;42.664;23.266;2022-07-22T08:05:20;7.28;;;3.35;;
58878;SDS011;44660;42.664;23.266;2022-07-22T08:07:46;9.15;;;3.47;;
58878;SDS011;44660;42.664;23.266;2022-07-22T08:10:12;10.68;;;3.63;;
58878;SDS011;44660;42.664;23.266;2022-07-22T08:12:38;9.20;;;3.65;;
58878;SDS011;44660;42.664;23.266;2022-07-22T08:15:03;10.65;;;3.55;;
58878;SDS011;44660;42.664;23.266;2022-07-22T08:17:29;12.10;;;3.60;;
58878;SDS011;44660;42.664;23.266;2022-07-22T08:19:54;7.90;;;3.40;;
58878;SDS011;44660;42.664;23.266;2022-07-22T08:22:20;6.93;;;3.50;;
58878;SDS011;44660;42.664;23.266;2022-07-22T08:24:45;6.95;;;3.85;;
58878;SDS011;44660;42.664;23.266;2022-07-22T08:27:11;7.03;;;3.30;;
58878;SDS011;44660;42.664;23.266;2022-07-22T08:29:36;15.23;;;4.20;;
58878;SDS011;44660;42.664;23.266;2022-07-22T08:32:02;10.07;;;3.90;;
58878;SDS011;44660;42.664;23.266;2022-07-22T08:34:27;12.52;;;4.20;;
58878;SDS011;44660;42.664;23.266;2022-07-22T08:36:53;8.27;;;3.63;;
58878;SDS011;44660;42.664;23.266;2022-07-22T08:39:18;9.10;;;3.58;;
58878;SDS011;44660;42.664;23.266;2022-07-22T08:41:43;10.35;;;3.60;;
58878;SDS011;44660;42.664;23.266;2022-07-22T08:44:09;6.10;;;3.47;;
58878;SDS011;44660;42.664;23.266;2022-07-22T08:46:35;6.43;;;3.55;;
58878;SDS011;44660;42.664;23.266;2022-07-22T08:49:01;10.68;;;3.33;;
58878;SDS011;44660;42.664;23.266;2022-07-22T08:51:27;6.55;;;3.08;;
58878;SDS011;44660;42.664;23.266;2022-07-22T08:53:56;19.63;;;4.47;;
58878;SDS011;44660;42.664;23.266;2022-07-22T08:56:22;6.35;;;3.08;;
58878;SDS011;44660;42.664;23.266;2022-07-22T08:58:47;15.73;;;3.35;;
58878;SDS011;44660;42.664;23.266;2022-07-22T09:01:14;5.85;;;3.42;;
58878;SDS011;44660;42.664;23.266;2022-07-22T09:03:53;9.05;;;3.28;;
58878;SDS011;44660;42.664;23.266;2022-07-22T09:06:21;12.43;;;3.33;;
58878;SDS011;44660;42.664;23.266;2022-07-22T09:11:25;5.72;;;3.65;;
58878;SDS011;44660;42.664;23.266;2022-07-22T09:13:53;8.85;;;3.53;;
58878;SDS011;44660;42.664;23.266;2022-07-22T09:19:03;11.85;;;2.97;;
58878;SDS011;44660;42.664;23.266;2022-07-22T09:21:29;7.15;;;3.60;;
58878;SDS011;44660;42.664;23.266;2022-07-22T09:23:55;7.30;;;3.58;;
58878;SDS011;44660;42.664;23.266;2022-07-22T09:29:19;5.03;;;3.30;;
58878;SDS011;44660;42.664;23.266;2022-07-22T09:31:49;7.03;;;3.13;;
58878;SDS011;44660;42.664;23.266;2022-07-22T09:34:29;5.55;;;3.42;;
58878;SDS011;44660;42.664;23.266;2022-07-22T09:36:57;8.02;;;3.42;;
58878;SDS011;44660;42.664;23.266;2022-07-22T09:39:28;6.53;;;3.50;;
58878;SDS011;44660;42.664;23.266;2022-07-22T09:42:02;6.68;;;3.40;;
58878;SDS011;44660;42.664;23.266;2022-07-22T09:44:30;5.50;;;3.40;;
58878;SDS011;44660;42.664;23.266;2022-07-22T09:46:56;6.13;;;3.45;;
58878;SDS011;44660;42.664;23.266;2022-07-22T09:49:34;10.35;;;3.22;;
58878;SDS011;44660;42.664;23.266;2022-07-22T09:52:04;6.10;;;3.17;;
58878;SDS011;44660;42.664;23.266;2022-07-22T09:54:30;9.07;;;3.22;;
58878;SDS011;44660;42.664;23.266;2022-07-22T09:56:56;6.55;;;3.00;;
58878;SDS011;44660;42.664;23.266;2022-07-22T09:59:22;11.48;;;3.90;;
58878;SDS011;44660;42.664;23.266;2022-07-22T10:01:48;7.80;;;3.50;;
58878;SDS011;44660;42.664;23.266;2022-07-22T10:04:19;7.60;;;3.58;;
58878;SDS011;44660;42.664;23.266;2022-07-22T10:06:45;5.05;;;3.33;;
58878;SDS011;44660;42.664;23.266;2022-07-22T10:09:14;8.57;;;3.72;;
58878;SDS011;44660;42.664;23.266;2022-07-22T10:11:42;5.90;;;3.13;;
58878;SDS011;44660;42.664;23.266;2022-07-22T10:14:14;11.93;;;3.45;;
58878;SDS011;44660;42.664;23.266;2022-07-22T10:16:42;6.00;;;3.47;;
58878;SDS011;44660;42.664;23.266;2022-07-22T10:19:08;13.27;;;3.85;;
58878;SDS011;44660;42.664;23.266;2022-07-22T10:21:35;10.65;;;3.70;;
58878;SDS011;44660;42.664;23.266;2022-07-22T10:24:11;6.25;;;3.35;;
58878;SDS011;44660;42.664;23.266;2022-07-22T10:26:53;5.38;;;3.22;;
58878;SDS011;44660;42.664;23.266;2022-07-22T10:29:40;8.38;;;3.22;;
58878;SDS011;44660;42.664;23.266;2022-07-22T10:34:40;5.50;;;3.38;;
58878;SDS011;44660;42.664;23.266;2022-07-22T10:43:08;4.88;;;3.17;;
58878;SDS011;44660;42.664;23.266;2022-07-22T10:45:38;10.68;;;3.97;;
58878;SDS011;44660;42.664;23.266;2022-07-22T10:48:14;6.38;;;3.40;;
58878;SDS011;44660;42.664;23.266;2022-07-22T10:50:47;6.28;;;3.38;;
58878;SDS011;44660;42.664;23.266;2022-07-22T10:53:43;7.97;;;3.40;;
58878;SDS011;44660;42.664;23.266;2022-07-22T11:01:24;10.07;;;3.40;;
58878;SDS011;44660;42.664;23.266;2022-07-22T11:03:52;7.55;;;3.60;;
58878;SDS011;44660;42.664;23.266;2022-07-22T11:06:23;4.32;;;3.13;;
58878;SDS011;44660;42.664;23.266;2022-07-22T11:08:51;4.93;;;3.17;;
58878;SDS011;44660;42.664;23.266;2022-07-22T11:11:36;5.97;;;3.30;;
58878;SDS011;44660;42.664;23.266;2022-07-22T11:17:05;4.55;;;3.38;;
58878;SDS011;44660;42.664;23.266;2022-07-22T11:19:33;5.70;;;3.40;;
58878;SDS011;44660;42.664;23.266;2022-07-22T11:22:03;8.57;;;3.40;;
58878;SDS011;44660;42.664;23.266;2022-07-22T11:24:33;6.05;;;3.42;;
58878;SDS011;44660;42.664;23.266;2022-07-22T11:27:00;5.95;;;3.22;;
58878;SDS011;44660;42.664;23.266;2022-07-22T11:29:26;8.45;;;3.30;;
58878;SDS011;44660;42.664;23.266;2022-07-22T11:31:59;5.55;;;3.22;;
58878;SDS011;44660;42.664;23.266;2022-07-22T11:34:26;10.60;;;4.03;;
58878;SDS011;44660;42.664;23.266;2022-07-22T11:36:53;7.85;;;3.22;;
58878;SDS011;44660;42.664;23.266;2022-07-22T11:39:20;7.38;;;3.40;;
58878;SDS011;44660;42.664;23.266;2022-07-22T11:41:47;3.53;;;3.13;;
58878;SDS011;44660;42.664;23.266;2022-07-22T11:44:17;8.52;;;3.33;;
58878;SDS011;44660;42.664;23.266;2022-07-22T11:46:48;7.43;;;3.33;;
58878;SDS011;44660;42.664;23.266;2022-07-22T11:49:15;15.27;;;3.63;;
58878;SDS011;44660;42.664;23.266;2022-07-22T11:51:45;5.82;;;3.10;;
58878;SDS011;44660;42.664;23.266;2022-07-22T11:54:11;7.03;;;3.20;;
58878;SDS011;44660;42.664;23.266;2022-07-22T11:56:37;6.93;;;3.30;;
58878;SDS011;44660;42.664;23.266;2022-07-22T11:59:03;4.60;;;3.17;;
58878;SDS011;44660;42.664;23.266;2022-07-22T12:01:33;4.93;;;3.40;;
58878;SDS011;44660;42.664;23.266;2022-07-22T12:04:08;7.22;;;3.13;;
58878;SDS011;44660;42.664;23.266;2022-07-22T12:06:35;5.47;;;3.28;;
58878;SDS011;44660;42.664;23.266;2022-07-22T12:09:04;8.70;;;3.88;;
58878;SDS011;44660;42.664;23.266;2022-07-22T12:11:31;8.05;;;3.47;;
58878;SDS011;44660;42.664;23.266;2022-07-22T12:13:57;7.05;;;3.67;;
58878;SDS011;44660;42.664;23.266;2022-07-22T12:16:30;5.68;;;3.63;;
58878;SDS011;44660;42.664;23.266;2022-07-22T12:18:59;7.47;;;3.15;;
58878;SDS011;44660;42.664;23.266;2022-07-22T12:21:28;4.63;;;3.50;;
58878;SDS011;44660;42.664;23.266;2022-07-22T12:24:05;7.50;;;3.53;;
58878;SDS011;44660;42.664;23.266;2022-07-22T12:26:45;4.75;;;3.65;;
58878;SDS011;44660;42.664;23.266;2022-07-22T12:31:46;6.57;;;3.40;;
58878;SDS011;44660;42.664;23.266;2022-07-22T12:34:13;6.70;;;3.53;;
58878;SDS011;44660;42.664;23.266;2022-07-22T12:36:42;5.85;;;3.70;;
58878;SDS011;44660;42.664;23.266;2022-07-22T12:39:15;6.60;;;3.55;;
58878;SDS011;44660;42.664;23.266;2022-07-22T12:41:49;9.75;;;3.80;;
58878;SDS011;44660;42.664;23.266;2022-07-22T12:44:18;7.40;;;3.55;;
58878;SDS011;44660;42.664;23.266;2022-07-22T12:46:48;6.22;;;3.80;;
58878;SDS011;44660;42.664;23.266;2022-07-22T12:49:17;8.65;;;3.50;;
58878;SDS011;44660;42.664;23.266;2022-07-22T12:54:32;11.52;;;3.63;;
58878;SDS011;44660;42.664;23.266;2022-07-22T12:56:58;7.25;;;3.72;;
58878;SDS011;44660;42.664;23.266;2022-07-22T12:59:24;6.55;;;3.85;;
58878;SDS011;44660;42.664;23.266;2022-07-22T13:01:49;13.70;;;3.67;;
58878;SDS011;44660;42.664;23.266;2022-07-22T13:04:15;8.52;;;3.50;;
58878;SDS011;44660;42.664;23.266;2022-07-22T13:06:40;11.77;;;3.60;;
58878;SDS011;44660;42.664;23.266;2022-07-22T13:09:06;10.73;;;3.47;;
58878;SDS011;44660;42.664;23.266;2022-07-22T13:11:31;6.88;;;3.60;;
58878;SDS011;44660;42.664;23.266;2022-07-22T13:13:57;6.63;;;3.38;;
58878;SDS011;44660;42.664;23.266;2022-07-22T13:16:22;8.48;;;3.50;;
58878;SDS011;44660;42.664;23.266;2022-07-22T13:18:49;12.20;;;3.65;;
58878;SDS011;44660;42.664;23.266;2022-07-22T13:21:16;8.48;;;3.95;;
58878;SDS011;44660;42.664;23.266;2022-07-22T13:23:41;6.93;;;3.67;;
58878;SDS011;44660;42.664;23.266;2022-07-22T13:26:06;6.18;;;3.25;;
58878;SDS011;44660;42.664;23.266;2022-07-22T13:28:32;7.88;;;3.97;;
58878;SDS011;44660;42.664;23.266;2022-07-22T13:30:57;11.23;;;3.67;;
58878;SDS011;44660;42.664;23.266;2022-07-22T13:33:22;5.75;;;3.40;;
58878;SDS011;44660;42.664;23.266;2022-07-22T13:35:48;10.63;;;3.55;;
58878;SDS011;44660;42.664;23.266;2022-07-22T13:38:13;10.00;;;3.78;;
58878;SDS011;44660;42.664;23.266;2022-07-22T13:40:42;6.78;;;3.35;;
58878;SDS011;44660;42.664;23.266;2022-07-22T13:43:20;8.50;;;3.90;;
58878;SDS011;44660;42.664;23.266;2022-07-22T13:45:48;10.63;;;3.70;;
58878;SDS011;44660;42.664;23.266;2022-07-22T13:48:13;6.95;;;3.65;;
58878;SDS011;44660;42.664;23.266;2022-07-22T13:50:39;8.98;;;3.70;;
58878;SDS011;44660;42.664;23.266;2022-07-22T13:53:05;7.25;;;3.65;;
58878;SDS011;44660;42.664;23.266;2022-07-22T13:55:30;8.98;;;3.80;;
58878;SDS011;44660;42.664;23.266;2022-07-22T13:57:56;6.05;;;3.10;;
58878;SDS011;44660;42.664;23.266;2022-07-22T14:00:23;5.55;;;3.50;;
58878;SDS011;44660;42.664;23.266;2022-07-22T14:02:51;6.57;;;3.50;;
58878;SDS011;44660;42.664;23.266;2022-07-22T14:05:17;7.70;;;3.42;;
58878;SDS011;44660;42.664;23.266;2022-07-22T14:07:43;6.88;;;3.50;;
58878;SDS011;44660;42.664;23.266;2022-07-22T14:10:10;8.88;;;3.58;;
58878;SDS011;44660;42.664;23.266;2022-07-22T14:12:35;6.53;;;3.40;;
58878;SDS011;44660;42.664;23.266;2022-07-22T14:15:01;5.72;;;3.20;;
58878;SDS011;44660;42.664;23.266;2022-07-22T14:17:26;5.80;;;3.47;;
58878;SDS011;44660;42.664;23.266;2022-07-22T14:19:51;7.43;;;3.42;;
58878;SDS011;44660;42.664;23.266;2022-07-22T14:22:17;9.02;;;3.35;;
58878;SDS011;44660;42.664;23.266;2022-07-22T14:24:42;8.32;;;3.60;;
58878;SDS011;44660;42.664;23.266;2022-07-22T14:27:08;6.65;;;3.50;;
58878;SDS011;44660;42.664;23.266;2022-07-22T14:29:33;11.00;;;3.63;;
58878;SDS011;44660;42.664;23.266;2022-07-22T14:31:59;8.65;;;3.78;;
58878;SDS011;44660;42.664;23.266;2022-07-22T14:34:24;8.82;;;4.25;;
58878;SDS011;44660;42.664;23.266;2022-07-22T14:36:50;7.53;;;4.10;;
58878;SDS011;44660;42.664;23.266;2022-07-22T14:39:15;8.18;;;4.20;;
58878;SDS011;44660;42.664;23.266;2022-07-22T14:41:41;6.43;;;3.20;;
58878;SDS011;44660;42.664;23.266;2022-07-22T14:44:07;6.22;;;3.33;;
58878;SDS011;44660;42.664;23.266;2022-07-22T14:46:32;8.65;;;3.20;;
58878;SDS011;44660;42.664;23.266;2022-07-22T14:48:58;9.50;;;3.50;;
58878;SDS011;44660;42.664;23.266;2022-07-22T14:51:23;8.50;;;3.33;;
58878;SDS011;44660;42.664;23.266;2022-07-22T14:53:49;4.57;;;3.22;;
58878;SDS011;44660;42.664;23.266;2022-07-22T14:56:15;5.97;;;3.45;;